sensor_id;sensor_type;location;lat;lon;timestamp;P1;durP1;ratioP1;P2;durP2;ratioP2
12412;SDS011;13877;18.896;-99.222;2023-03-01T00:01:29;11.13;;;2.80;;
12412;SDS011;13877;18.896;-99.222;2023-03-01T00:03:58;13.13;;;3.45;;
12412;SDS011;13877;18.896;-99.222;2023-03-01T00:06:26;35.47;;;4.63;;
12412;SDS011;13877;18.896;-99.222;2023-03-01T00:08:53;37.47;;;4.20;;
12412;SDS011;13877;18.896;-99.222;2023-03-01T00:11:23;9.85;;;3.67;;
12412;SDS011;13877;18.896;-99.222;2023-03-01T00:13:53;7.30;;;3.72;;
12412;SDS011;13877;18.896;-99.222;2023-03-01T00:16:26;6.15;;;3.78;;
12412;SDS011;13877;18.896;-99.222;2023-03-01T00:18:56;9.10;;;3.80;;
12412;SDS011;13877;18.896;-99.222;2023-03-01T00:21:24;12.13;;;3.42;;
12412;SDS011;13877;18.896;-99.222;2023-03-01T00:23:52;8.32;;;4.20;;
12412;SDS011;13877;18.896;-99.222;2023-03-01T00:26:20;9.95;;;4.07;;
12412;SDS011;13877;18.896;-99.222;2023-03-01T00:28:50;7.20;;;4.20;;
12412;SDS011;13877;18.896;-99.222;2023-03-01T00:31:22;12.00;;;4.07;;
12412;SDS011;13877;18.896;-99.222;2023-03-01T00:33:52;10.50;;;4.60;;
12412;SDS011;13877;18.896;-99.222;2023-03-01T00:36:27;10.80;;;3.63;;
12412;SDS011;13877;18.896;-99.222;2023-03-01T00:39:01;14.20;;;4.43;;
12412;SDS011;13877;18.896;-99.222;2023-03-01T00:41:30;15.07;;;5.38;;
12412;SDS011;13877;18.896;-99.222;2023-03-01T00:44:03;9.30;;;4.47;;
12412;SDS011;13877;18.896;-99.222;2023-03-01T00:46:30;10.35;;;4.43;;
12412;SDS011;13877;18.896;-99.222;2023-03-01T00:48:59;17.00;;;4.90;;
12412;SDS011;13877;18.896;-99.222;2023-03-01T00:51:28;10.20;;;4.80;;
12412;SDS011;13877;18.896;-99.222;2023-03-01T00:53:56;10.27;;;4.82;;
12412;SDS011;13877;18.896;-99.222;2023-03-01T00:56:26;16.15;;;4.82;;
12412;SDS011;13877;18.896;-99.222;2023-03-01T00:58:54;12.38;;;4.47;;
12412;SDS011;13877;18.896;-99.222;2023-03-01T01:01:23;13.02;;;5.75;;
12412;SDS011;13877;18.896;-99.222;2023-03-01T01:03:58;15.63;;;5.20;;
12412;SDS011;13877;18.896;-99.222;2023-03-01T01:06:29;25.85;;;5.40;;
12412;SDS011;13877;18.896;-99.222;2023-03-01T01:09:04;18.52;;;5.55;;
12412;SDS011;13877;18.896;-99.222;2023-03-01T01:11:33;12.57;;;5.38;;
12412;SDS011;13877;18.896;-99.222;2023-03-01T01:14:04;27.90;;;7.07;;
12412;SDS011;13877;18.896;-99.222;2023-03-01T01:16:31;21.00;;;5.63;;
12412;SDS011;13877;18.896;-99.222;2023-03-01T01:18:58;24.45;;;6.85;;
12412;SDS011;13877;18.896;-99.222;2023-03-01T01:21:26;19.67;;;5.68;;
12412;SDS011;13877;18.896;-99.222;2023-03-01T01:23:56;18.55;;;5.75;;
12412;SDS011;13877;18.896;-99.222;2023-03-01T01:26:24;24.80;;;6.28;;
12412;SDS011;13877;18.896;-99.222;2023-03-01T01:28:54;21.43;;;5.30;;
12412;SDS011;13877;18.896;-99.222;2023-03-01T01:31:21;13.63;;;4.63;;
12412;SDS011;13877;18.896;-99.222;2023-03-01T01:33:51;11.47;;;4.57;;
12412;SDS011;13877;18.896;-99.222;2023-03-01T01:36:18;15.65;;;5.53;;
12412;SDS011;13877;18.896;-99.222;2023-03-01T01:38:46;17.27;;;4.78;;
12412;SDS011;13877;18.896;-99.222;2023-03-01T01:41:15;12.23;;;5.13;;
12412;SDS011;13877;18.896;-99.222;2023-03-01T01:43:44;11.35;;;5.60;;
12412;SDS011;13877;18.896;-99.222;2023-03-01T01:46:30;16.10;;;6.03;;
12412;SDS011;13877;18.896;-99.222;2023-03-01T01:49:00;15.02;;;5.95;;
12412;SDS011;13877;18.896;-99.222;2023-03-01T01:51:38;19.63;;;5.90;;
12412;SDS011;13877;18.896;-99.222;2023-03-01T01:54:08;23.90;;;6.40;;
12412;SDS011;13877;18.896;-99.222;2023-03-01T01:56:47;15.30;;;5.63;;
12412;SDS011;13877;18.896;-99.222;2023-03-01T01:59:19;13.73;;;5.80;;
12412;SDS011;13877;18.896;-99.222;2023-03-01T02:04:18;15.52;;;5.50;;
12412;SDS011;13877;18.896;-99.222;2023-03-01T02:06:54;14.95;;;5.47;;
12412;SDS011;13877;18.896;-99.222;2023-03-01T02:09:29;17.40;;;5.82;;
12412;SDS011;13877;18.896;-99.222;2023-03-01T02:11:58;14.75;;;5.60;;
12412;SDS011;13877;18.896;-99.222;2023-03-01T02:14:25;10.35;;;4.72;;
12412;SDS011;13877;18.896;-99.222;2023-03-01T02:16:52;15.32;;;4.63;;
12412;SDS011;13877;18.896;-99.222;2023-03-01T02:20:04;13.30;;;5.30;;
12412;SDS011;13877;18.896;-99.222;2023-03-01T02:22:28;18.17;;;5.57;;
12412;SDS011;13877;18.896;-99.222;2023-03-01T02:27:37;15.23;;;5.47;;
12412;SDS011;13877;18.896;-99.222;2023-03-01T02:30:14;15.98;;;5.95;;
12412;SDS011;13877;18.896;-99.222;2023-03-01T02:32:42;15.80;;;5.00;;
12412;SDS011;13877;18.896;-99.222;2023-03-01T02:35:12;17.60;;;5.40;;
12412;SDS011;13877;18.896;-99.222;2023-03-01T02:37:43;15.15;;;5.32;;
12412;SDS011;13877;18.896;-99.222;2023-03-01T02:40:12;16.25;;;5.30;;
12412;SDS011;13877;18.896;-99.222;2023-03-01T02:42:49;14.35;;;5.22;;
12412;SDS011;13877;18.896;-99.222;2023-03-01T02:45:22;13.32;;;5.30;;
12412;SDS011;13877;18.896;-99.222;2023-03-01T02:47:53;14.25;;;5.38;;
12412;SDS011;13877;18.896;-99.222;2023-03-01T02:53:13;20.65;;;4.90;;
12412;SDS011;13877;18.896;-99.222;2023-03-01T02:55:49;10.32;;;5.35;;
12412;SDS011;13877;18.896;-99.222;2023-03-01T02:58:16;16.02;;;4.95;;
12412;SDS011;13877;18.896;-99.222;2023-03-01T03:00:43;13.98;;;4.78;;
12412;SDS011;13877;18.896;-99.222;2023-03-01T03:03:17;19.10;;;5.30;;
12412;SDS011;13877;18.896;-99.222;2023-03-01T03:05:47;12.90;;;5.28;;
12412;SDS011;13877;18.896;-99.222;2023-03-01T03:08:14;20.63;;;5.95;;
12412;SDS011;13877;18.896;-99.222;2023-03-01T03:10:50;9.77;;;5.18;;
12412;SDS011;13877;18.896;-99.222;2023-03-01T03:13:17;20.85;;;5.82;;
12412;SDS011;13877;18.896;-99.222;2023-03-01T03:15:45;13.20;;;5.28;;
12412;SDS011;13877;18.896;-99.222;2023-03-01T03:18:13;15.27;;;5.47;;
12412;SDS011;13877;18.896;-99.222;2023-03-01T03:20:42;14.95;;;5.82;;
12412;SDS011;13877;18.896;-99.222;2023-03-01T03:23:10;15.02;;;5.88;;
12412;SDS011;13877;18.896;-99.222;2023-03-01T03:25:36;26.70;;;6.85;;
12412;SDS011;13877;18.896;-99.222;2023-03-01T03:28:04;24.42;;;7.07;;
12412;SDS011;13877;18.896;-99.222;2023-03-01T03:30:36;26.58;;;7.22;;
12412;SDS011;13877;18.896;-99.222;2023-03-01T03:33:06;19.80;;;6.07;;
12412;SDS011;13877;18.896;-99.222;2023-03-01T03:35:38;23.35;;;6.15;;
12412;SDS011;13877;18.896;-99.222;2023-03-01T03:38:09;20.92;;;6.57;;
12412;SDS011;13877;18.896;-99.222;2023-03-01T03:40:45;19.35;;;5.93;;
12412;SDS011;13877;18.896;-99.222;2023-03-01T03:43:15;16.45;;;6.13;;
12412;SDS011;13877;18.896;-99.222;2023-03-01T03:45:44;17.77;;;6.05;;
12412;SDS011;13877;18.896;-99.222;2023-03-01T03:48:11;19.25;;;5.80;;
12412;SDS011;13877;18.896;-99.222;2023-03-01T03:50:39;21.58;;;6.25;;
12412;SDS011;13877;18.896;-99.222;2023-03-01T03:53:08;34.85;;;5.80;;
12412;SDS011;13877;18.896;-99.222;2023-03-01T03:55:38;13.15;;;6.32;;
12412;SDS011;13877;18.896;-99.222;2023-03-01T03:58:05;22.05;;;6.05;;
12412;SDS011;13877;18.896;-99.222;2023-03-01T04:00:38;19.35;;;5.45;;
12412;SDS011;13877;18.896;-99.222;2023-03-01T04:03:10;13.77;;;6.10;;
12412;SDS011;13877;18.896;-99.222;2023-03-01T04:05:40;16.55;;;5.85;;
12412;SDS011;13877;18.896;-99.222;2023-03-01T04:08:08;17.55;;;5.55;;
12412;SDS011;13877;18.896;-99.222;2023-03-01T04:10:36;18.05;;;7.07;;
12412;SDS011;13877;18.896;-99.222;2023-03-01T04:13:06;25.25;;;6.15;;
12412;SDS011;13877;18.896;-99.222;2023-03-01T04:15:35;22.38;;;5.75;;
12412;SDS011;13877;18.896;-99.222;2023-03-01T04:18:03;25.58;;;5.57;;
12412;SDS011;13877;18.896;-99.222;2023-03-01T04:20:31;18.27;;;5.60;;
12412;SDS011;13877;18.896;-99.222;2023-03-01T04:23:02;15.82;;;6.40;;
12412;SDS011;13877;18.896;-99.222;2023-03-01T04:25:39;17.65;;;6.38;;
12412;SDS011;13877;18.896;-99.222;2023-03-01T04:28:08;18.67;;;5.88;;
12412;SDS011;13877;18.896;-99.222;2023-03-01T04:30:36;26.67;;;6.18;;
12412;SDS011;13877;18.896;-99.222;2023-03-01T04:33:05;18.67;;;6.53;;
12412;SDS011;13877;18.896;-99.222;2023-03-01T04:35:33;15.43;;;5.43;;
12412;SDS011;13877;18.896;-99.222;2023-03-01T04:38:01;17.25;;;5.50;;
12412;SDS011;13877;18.896;-99.222;2023-03-01T04:40:28;17.55;;;5.82;;
12412;SDS011;13877;18.896;-99.222;2023-03-01T04:42:55;18.20;;;6.57;;
12412;SDS011;13877;18.896;-99.222;2023-03-01T04:45:22;12.20;;;4.90;;
12412;SDS011;13877;18.896;-99.222;2023-03-01T04:47:51;15.68;;;5.47;;
12412;SDS011;13877;18.896;-99.222;2023-03-01T04:50:23;10.60;;;5.35;;
12412;SDS011;13877;18.896;-99.222;2023-03-01T04:52:51;19.45;;;5.72;;
12412;SDS011;13877;18.896;-99.222;2023-03-01T04:55:18;16.10;;;5.50;;
12412;SDS011;13877;18.896;-99.222;2023-03-01T04:57:45;16.73;;;5.38;;
12412;SDS011;13877;18.896;-99.222;2023-03-01T05:00:13;16.30;;;5.97;;
12412;SDS011;13877;18.896;-99.222;2023-03-01T05:05:20;16.45;;;5.78;;
12412;SDS011;13877;18.896;-99.222;2023-03-01T05:07:58;26.35;;;6.10;;
12412;SDS011;13877;18.896;-99.222;2023-03-01T05:10:28;15.20;;;5.57;;
12412;SDS011;13877;18.896;-99.222;2023-03-01T05:12:56;18.58;;;5.50;;
12412;SDS011;13877;18.896;-99.222;2023-03-01T05:15:24;18.60;;;6.72;;
12412;SDS011;13877;18.896;-99.222;2023-03-01T05:17:52;20.63;;;7.35;;
12412;SDS011;13877;18.896;-99.222;2023-03-01T05:20:29;20.00;;;6.05;;
12412;SDS011;13877;18.896;-99.222;2023-03-01T05:22:57;18.17;;;6.18;;
12412;SDS011;13877;18.896;-99.222;2023-03-01T05:25:25;17.73;;;5.78;;
12412;SDS011;13877;18.896;-99.222;2023-03-01T05:27:52;14.98;;;5.15;;
12412;SDS011;13877;18.896;-99.222;2023-03-01T05:30:19;14.65;;;4.90;;
12412;SDS011;13877;18.896;-99.222;2023-03-01T05:32:48;18.83;;;4.90;;
12412;SDS011;13877;18.896;-99.222;2023-03-01T05:35:23;13.23;;;4.97;;
12412;SDS011;13877;18.896;-99.222;2023-03-01T05:37:50;11.68;;;4.55;;
12412;SDS011;13877;18.896;-99.222;2023-03-01T05:40:19;16.25;;;4.95;;
12412;SDS011;13877;18.896;-99.222;2023-03-01T05:42:49;14.32;;;4.65;;
12412;SDS011;13877;18.896;-99.222;2023-03-01T05:45:21;21.17;;;4.97;;
12412;SDS011;13877;18.896;-99.222;2023-03-01T05:47:50;13.45;;;5.03;;
12412;SDS011;13877;18.896;-99.222;2023-03-01T05:50:22;14.10;;;4.63;;
12412;SDS011;13877;18.896;-99.222;2023-03-01T05:52:52;15.95;;;4.47;;
12412;SDS011;13877;18.896;-99.222;2023-03-01T05:55:25;12.30;;;4.78;;
12412;SDS011;13877;18.896;-99.222;2023-03-01T05:57:52;9.25;;;4.53;;
12412;SDS011;13877;18.896;-99.222;2023-03-01T06:00:20;14.95;;;5.03;;
12412;SDS011;13877;18.896;-99.222;2023-03-01T06:02:50;14.18;;;4.07;;
12412;SDS011;13877;18.896;-99.222;2023-03-01T06:05:19;14.13;;;4.85;;
12412;SDS011;13877;18.896;-99.222;2023-03-01T06:07:46;19.33;;;5.10;;
12412;SDS011;13877;18.896;-99.222;2023-03-01T06:10:14;13.45;;;5.68;;
12412;SDS011;13877;18.896;-99.222;2023-03-01T06:12:42;22.83;;;4.68;;
12412;SDS011;13877;18.896;-99.222;2023-03-01T06:15:10;14.10;;;4.70;;
12412;SDS011;13877;18.896;-99.222;2023-03-01T06:17:41;12.55;;;5.18;;
12412;SDS011;13877;18.896;-99.222;2023-03-01T06:20:14;18.50;;;5.15;;
12412;SDS011;13877;18.896;-99.222;2023-03-01T06:22:48;20.98;;;5.07;;
12412;SDS011;13877;18.896;-99.222;2023-03-01T06:25:16;21.50;;;5.57;;
12412;SDS011;13877;18.896;-99.222;2023-03-01T06:27:46;27.20;;;5.70;;
12412;SDS011;13877;18.896;-99.222;2023-03-01T06:30:16;29.67;;;7.15;;
12412;SDS011;13877;18.896;-99.222;2023-03-01T06:32:45;28.63;;;5.75;;
12412;SDS011;13877;18.896;-99.222;2023-03-01T06:35:13;27.15;;;6.32;;
12412;SDS011;13877;18.896;-99.222;2023-03-01T06:37:43;15.48;;;6.32;;
12412;SDS011;13877;18.896;-99.222;2023-03-01T06:40:11;17.02;;;5.95;;
12412;SDS011;13877;18.896;-99.222;2023-03-01T06:42:40;17.90;;;5.47;;
12412;SDS011;13877;18.896;-99.222;2023-03-01T06:45:09;29.73;;;6.18;;
12412;SDS011;13877;18.896;-99.222;2023-03-01T06:47:39;22.98;;;6.68;;
12412;SDS011;13877;18.896;-99.222;2023-03-01T06:50:05;21.42;;;6.90;;
12412;SDS011;13877;18.896;-99.222;2023-03-01T06:52:33;20.70;;;7.38;;
12412;SDS011;13877;18.896;-99.222;2023-03-01T06:55:00;16.58;;;6.25;;
12412;SDS011;13877;18.896;-99.222;2023-03-01T06:57:27;23.13;;;6.53;;
12412;SDS011;13877;18.896;-99.222;2023-03-01T06:59:54;35.60;;;8.27;;
12412;SDS011;13877;18.896;-99.222;2023-03-01T07:02:22;33.65;;;8.05;;
12412;SDS011;13877;18.896;-99.222;2023-03-01T07:04:49;18.05;;;6.75;;
12412;SDS011;13877;18.896;-99.222;2023-03-01T07:07:17;20.60;;;7.72;;
12412;SDS011;13877;18.896;-99.222;2023-03-01T07:09:45;26.60;;;7.47;;
12412;SDS011;13877;18.896;-99.222;2023-03-01T07:12:14;23.20;;;6.88;;
12412;SDS011;13877;18.896;-99.222;2023-03-01T07:14:41;23.08;;;6.80;;
12412;SDS011;13877;18.896;-99.222;2023-03-01T07:17:10;22.75;;;7.63;;
12412;SDS011;13877;18.896;-99.222;2023-03-01T07:19:37;29.15;;;7.13;;
12412;SDS011;13877;18.896;-99.222;2023-03-01T07:22:05;21.35;;;6.25;;
12412;SDS011;13877;18.896;-99.222;2023-03-01T07:24:33;18.23;;;5.88;;
12412;SDS011;13877;18.896;-99.222;2023-03-01T07:27:01;16.33;;;6.43;;
12412;SDS011;13877;18.896;-99.222;2023-03-01T07:29:28;24.42;;;7.40;;
12412;SDS011;13877;18.896;-99.222;2023-03-01T07:31:55;19.95;;;6.25;;
12412;SDS011;13877;18.896;-99.222;2023-03-01T07:34:22;15.02;;;6.43;;
12412;SDS011;13877;18.896;-99.222;2023-03-01T07:36:49;14.55;;;6.65;;
12412;SDS011;13877;18.896;-99.222;2023-03-01T07:39:16;16.75;;;6.47;;
12412;SDS011;13877;18.896;-99.222;2023-03-01T07:41:43;14.27;;;6.00;;
12412;SDS011;13877;18.896;-99.222;2023-03-01T07:44:10;18.08;;;5.82;;
12412;SDS011;13877;18.896;-99.222;2023-03-01T07:46:37;21.35;;;6.45;;
12412;SDS011;13877;18.896;-99.222;2023-03-01T07:49:05;14.48;;;6.25;;
12412;SDS011;13877;18.896;-99.222;2023-03-01T07:51:32;21.98;;;6.63;;
12412;SDS011;13877;18.896;-99.222;2023-03-01T07:53:59;20.48;;;6.47;;
12412;SDS011;13877;18.896;-99.222;2023-03-01T07:56:26;16.98;;;6.78;;
12412;SDS011;13877;18.896;-99.222;2023-03-01T07:58:53;21.33;;;8.05;;
12412;SDS011;13877;18.896;-99.222;2023-03-01T08:01:21;22.80;;;7.43;;
12412;SDS011;13877;18.896;-99.222;2023-03-01T08:03:49;23.65;;;9.40;;
12412;SDS011;13877;18.896;-99.222;2023-03-01T08:06:17;19.13;;;6.78;;
12412;SDS011;13877;18.896;-99.222;2023-03-01T08:08:45;17.33;;;7.38;;
12412;SDS011;13877;18.896;-99.222;2023-03-01T08:11:13;19.17;;;7.55;;
12412;SDS011;13877;18.896;-99.222;2023-03-01T08:13:41;23.23;;;7.28;;
12412;SDS011;13877;18.896;-99.222;2023-03-01T08:16:13;18.38;;;8.38;;
12412;SDS011;13877;18.896;-99.222;2023-03-01T08:21:08;22.15;;;7.88;;
12412;SDS011;13877;18.896;-99.222;2023-03-01T08:23:39;21.90;;;7.40;;
12412;SDS011;13877;18.896;-99.222;2023-03-01T08:26:16;18.95;;;7.18;;
12412;SDS011;13877;18.896;-99.222;2023-03-01T08:28:45;29.83;;;8.50;;
12412;SDS011;13877;18.896;-99.222;2023-03-01T08:31:14;17.00;;;7.65;;
12412;SDS011;13877;18.896;-99.222;2023-03-01T08:33:49;25.83;;;8.15;;
12412;SDS011;13877;18.896;-99.222;2023-03-01T08:36:25;20.50;;;8.85;;
12412;SDS011;13877;18.896;-99.222;2023-03-01T08:38:53;18.23;;;7.68;;
12412;SDS011;13877;18.896;-99.222;2023-03-01T08:41:21;20.85;;;7.95;;
12412;SDS011;13877;18.896;-99.222;2023-03-01T08:43:48;19.20;;;7.57;;
12412;SDS011;13877;18.896;-99.222;2023-03-01T08:46:15;22.20;;;7.80;;
12412;SDS011;13877;18.896;-99.222;2023-03-01T08:48:42;15.68;;;7.22;;
12412;SDS011;13877;18.896;-99.222;2023-03-01T08:51:11;27.25;;;7.45;;
12412;SDS011;13877;18.896;-99.222;2023-03-01T08:53:45;19.45;;;7.20;;
12412;SDS011;13877;18.896;-99.222;2023-03-01T08:56:12;21.92;;;8.70;;
12412;SDS011;13877;18.896;-99.222;2023-03-01T08:58:40;21.23;;;8.35;;
12412;SDS011;13877;18.896;-99.222;2023-03-01T09:01:14;33.03;;;9.07;;
12412;SDS011;13877;18.896;-99.222;2023-03-01T09:03:43;21.63;;;8.55;;
12412;SDS011;13877;18.896;-99.222;2023-03-01T09:06:11;21.77;;;8.20;;
12412;SDS011;13877;18.896;-99.222;2023-03-01T09:08:43;26.27;;;9.60;;
12412;SDS011;13877;18.896;-99.222;2023-03-01T09:11:13;22.33;;;8.48;;
12412;SDS011;13877;18.896;-99.222;2023-03-01T09:13:44;23.55;;;8.27;;
12412;SDS011;13877;18.896;-99.222;2023-03-01T09:16:13;26.80;;;8.85;;
12412;SDS011;13877;18.896;-99.222;2023-03-01T09:18:43;30.92;;;8.85;;
12412;SDS011;13877;18.896;-99.222;2023-03-01T09:21:12;22.95;;;8.98;;
12412;SDS011;13877;18.896;-99.222;2023-03-01T09:23:42;28.85;;;8.20;;
12412;SDS011;13877;18.896;-99.222;2023-03-01T09:26:11;35.00;;;9.45;;
12412;SDS011;13877;18.896;-99.222;2023-03-01T09:28:42;28.08;;;9.48;;
12412;SDS011;13877;18.896;-99.222;2023-03-01T09:31:12;25.75;;;8.90;;
12412;SDS011;13877;18.896;-99.222;2023-03-01T09:33:41;21.05;;;8.90;;
12412;SDS011;13877;18.896;-99.222;2023-03-01T09:36:12;22.80;;;8.38;;
12412;SDS011;13877;18.896;-99.222;2023-03-01T09:38:44;21.65;;;9.65;;
12412;SDS011;13877;18.896;-99.222;2023-03-01T09:46:52;28.38;;;9.02;;
12412;SDS011;13877;18.896;-99.222;2023-03-01T09:49:23;24.08;;;9.18;;
12412;SDS011;13877;18.896;-99.222;2023-03-01T09:54:52;30.88;;;9.70;;
12412;SDS011;13877;18.896;-99.222;2023-03-01T09:57:26;28.13;;;9.27;;
12412;SDS011;13877;18.896;-99.222;2023-03-01T10:02:48;32.67;;;10.15;;
12412;SDS011;13877;18.896;-99.222;2023-03-01T10:05:25;42.22;;;9.88;;
12412;SDS011;13877;18.896;-99.222;2023-03-01T10:10:36;26.00;;;9.90;;
12412;SDS011;13877;18.896;-99.222;2023-03-01T10:13:17;30.30;;;8.55;;
12412;SDS011;13877;18.896;-99.222;2023-03-01T10:15:56;29.23;;;10.68;;
12412;SDS011;13877;18.896;-99.222;2023-03-01T10:18:30;31.05;;;9.05;;
12412;SDS011;13877;18.896;-99.222;2023-03-01T10:21:05;18.63;;;8.15;;
12412;SDS011;13877;18.896;-99.222;2023-03-01T10:23:36;25.52;;;8.40;;
12412;SDS011;13877;18.896;-99.222;2023-03-01T10:26:09;22.23;;;8.57;;
12412;SDS011;13877;18.896;-99.222;2023-03-01T10:31:15;29.10;;;9.02;;
12412;SDS011;13877;18.896;-99.222;2023-03-01T10:33:48;23.65;;;9.02;;
12412;SDS011;13877;18.896;-99.222;2023-03-01T10:36:21;33.72;;;9.80;;
12412;SDS011;13877;18.896;-99.222;2023-03-01T10:38:49;28.88;;;9.80;;
12412;SDS011;13877;18.896;-99.222;2023-03-01T10:41:20;30.17;;;10.07;;
12412;SDS011;13877;18.896;-99.222;2023-03-01T10:43:57;31.13;;;10.80;;
12412;SDS011;13877;18.896;-99.222;2023-03-01T10:46:36;27.10;;;9.52;;
12412;SDS011;13877;18.896;-99.222;2023-03-01T10:49:14;32.40;;;8.98;;
12412;SDS011;13877;18.896;-99.222;2023-03-01T10:51:49;33.00;;;9.85;;
12412;SDS011;13877;18.896;-99.222;2023-03-01T10:57:03;24.52;;;9.93;;
12412;SDS011;13877;18.896;-99.222;2023-03-01T10:59:32;24.65;;;9.18;;
12412;SDS011;13877;18.896;-99.222;2023-03-01T11:02:13;25.42;;;8.13;;
12412;SDS011;13877;18.896;-99.222;2023-03-01T11:04:56;26.67;;;7.70;;
12412;SDS011;13877;18.896;-99.222;2023-03-01T11:07:50;22.92;;;7.25;;
12412;SDS011;13877;18.896;-99.222;2023-03-01T11:10:20;23.65;;;6.80;;
12412;SDS011;13877;18.896;-99.222;2023-03-01T11:12:50;23.67;;;8.90;;
12412;SDS011;13877;18.896;-99.222;2023-03-01T11:15:26;20.63;;;8.32;;
12412;SDS011;13877;18.896;-99.222;2023-03-01T11:17:55;22.58;;;8.88;;
12412;SDS011;13877;18.896;-99.222;2023-03-01T11:20:33;30.55;;;10.35;;
12412;SDS011;13877;18.896;-99.222;2023-03-01T11:23:09;31.27;;;12.02;;
12412;SDS011;13877;18.896;-99.222;2023-03-01T11:26:00;33.35;;;11.93;;
12412;SDS011;13877;18.896;-99.222;2023-03-01T11:28:31;30.17;;;12.35;;
12412;SDS011;13877;18.896;-99.222;2023-03-01T11:31:09;33.92;;;12.77;;
12412;SDS011;13877;18.896;-99.222;2023-03-01T11:33:43;38.03;;;14.30;;
12412;SDS011;13877;18.896;-99.222;2023-03-01T11:39:05;46.03;;;13.93;;
12412;SDS011;13877;18.896;-99.222;2023-03-01T11:41:42;42.15;;;13.60;;
12412;SDS011;13877;18.896;-99.222;2023-03-01T11:44:25;34.30;;;13.98;;
12412;SDS011;13877;18.896;-99.222;2023-03-01T11:47:03;40.05;;;15.13;;
12412;SDS011;13877;18.896;-99.222;2023-03-01T11:50:08;44.20;;;14.40;;
12412;SDS011;13877;18.896;-99.222;2023-03-01T11:52:53;44.65;;;15.48;;
12412;SDS011;13877;18.896;-99.222;2023-03-01T12:01:16;42.15;;;14.45;;
12412;SDS011;13877;18.896;-99.222;2023-03-01T12:07:00;38.28;;;13.77;;
12412;SDS011;13877;18.896;-99.222;2023-03-01T12:09:44;35.05;;;13.52;;
12412;SDS011;13877;18.896;-99.222;2023-03-01T12:21:18;34.38;;;13.52;;
12412;SDS011;13877;18.896;-99.222;2023-03-01T12:29:23;43.20;;;15.68;;
12412;SDS011;13877;18.896;-99.222;2023-03-01T12:41:06;40.03;;;12.77;;
12412;SDS011;13877;18.896;-99.222;2023-03-01T12:54:37;47.40;;;12.48;;
12412;SDS011;13877;18.896;-99.222;2023-03-01T13:02:38;38.70;;;12.13;;
12412;SDS011;13877;18.896;-99.222;2023-03-01T13:08:02;49.33;;;12.98;;
12412;SDS011;13877;18.896;-99.222;2023-03-01T13:11:00;35.38;;;12.25;;
12412;SDS011;13877;18.896;-99.222;2023-03-01T13:13:30;35.08;;;11.43;;
12412;SDS011;13877;18.896;-99.222;2023-03-01T13:16:19;26.33;;;11.27;;
12412;SDS011;13877;18.896;-99.222;2023-03-01T13:19:47;47.33;;;12.90;;
12412;SDS011;13877;18.896;-99.222;2023-03-01T13:24:37;43.50;;;12.80;;
12412;SDS011;13877;18.896;-99.222;2023-03-01T13:29:46;34.65;;;11.00;;
12412;SDS011;13877;18.896;-99.222;2023-03-01T13:32:25;30.77;;;10.48;;
12412;SDS011;13877;18.896;-99.222;2023-03-01T13:37:50;47.75;;;11.75;;
12412;SDS011;13877;18.896;-99.222;2023-03-01T13:42:45;32.42;;;11.00;;
12412;SDS011;13877;18.896;-99.222;2023-03-01T13:47:55;31.70;;;11.05;;
12412;SDS011;13877;18.896;-99.222;2023-03-01T13:51:10;32.55;;;10.50;;
12412;SDS011;13877;18.896;-99.222;2023-03-01T13:53:45;32.85;;;11.15;;
12412;SDS011;13877;18.896;-99.222;2023-03-01T13:56:15;35.75;;;10.20;;
12412;SDS011;13877;18.896;-99.222;2023-03-01T13:59:04;36.17;;;11.13;;
12412;SDS011;13877;18.896;-99.222;2023-03-01T14:01:40;42.65;;;11.93;;
12412;SDS011;13877;18.896;-99.222;2023-03-01T14:04:21;51.88;;;11.23;;
12412;SDS011;13877;18.896;-99.222;2023-03-01T14:07:21;37.53;;;10.95;;
12412;SDS011;13877;18.896;-99.222;2023-03-01T14:09:58;44.53;;;9.75;;
12412;SDS011;13877;18.896;-99.222;2023-03-01T14:20:44;28.70;;;7.97;;
12412;SDS011;13877;18.896;-99.222;2023-03-01T14:23:18;36.45;;;8.93;;
12412;SDS011;13877;18.896;-99.222;2023-03-01T14:25:53;25.65;;;8.00;;
12412;SDS011;13877;18.896;-99.222;2023-03-01T14:28:24;29.90;;;7.63;;
12412;SDS011;13877;18.896;-99.222;2023-03-01T14:31:01;41.60;;;8.90;;
12412;SDS011;13877;18.896;-99.222;2023-03-01T14:33:30;33.72;;;7.80;;
12412;SDS011;13877;18.896;-99.222;2023-03-01T14:41:13;26.90;;;6.80;;
12412;SDS011;13877;18.896;-99.222;2023-03-01T14:43:43;26.20;;;8.02;;
12412;SDS011;13877;18.896;-99.222;2023-03-01T14:46:20;39.80;;;7.45;;
12412;SDS011;13877;18.896;-99.222;2023-03-01T14:51:40;33.63;;;8.15;;
12412;SDS011;13877;18.896;-99.222;2023-03-01T14:56:59;55.50;;;7.90;;
12412;SDS011;13877;18.896;-99.222;2023-03-01T14:59:27;19.42;;;6.70;;
12412;SDS011;13877;18.896;-99.222;2023-03-01T15:01:57;23.58;;;7.05;;
12412;SDS011;13877;18.896;-99.222;2023-03-01T15:04:26;24.70;;;7.28;;
12412;SDS011;13877;18.896;-99.222;2023-03-01T15:06:54;22.60;;;7.35;;
12412;SDS011;13877;18.896;-99.222;2023-03-01T15:09:31;35.63;;;6.93;;
12412;SDS011;13877;18.896;-99.222;2023-03-01T15:12:14;20.88;;;6.80;;
12412;SDS011;13877;18.896;-99.222;2023-03-01T15:17:56;23.77;;;7.57;;
12412;SDS011;13877;18.896;-99.222;2023-03-01T15:20:31;23.33;;;7.57;;
12412;SDS011;13877;18.896;-99.222;2023-03-01T15:23:01;23.73;;;6.65;;
12412;SDS011;13877;18.896;-99.222;2023-03-01T15:25:31;23.00;;;5.88;;
12412;SDS011;13877;18.896;-99.222;2023-03-01T15:28:00;16.08;;;6.43;;
12412;SDS011;13877;18.896;-99.222;2023-03-01T15:30:35;31.35;;;6.80;;
12412;SDS011;13877;18.896;-99.222;2023-03-01T15:33:19;20.48;;;6.80;;
12412;SDS011;13877;18.896;-99.222;2023-03-01T15:35:56;19.80;;;7.57;;
12412;SDS011;13877;18.896;-99.222;2023-03-01T15:38:25;19.60;;;7.70;;
12412;SDS011;13877;18.896;-99.222;2023-03-01T15:41:05;22.92;;;7.57;;
12412;SDS011;13877;18.896;-99.222;2023-03-01T15:43:53;21.52;;;6.80;;
12412;SDS011;13877;18.896;-99.222;2023-03-01T15:46:23;20.40;;;6.35;;
12412;SDS011;13877;18.896;-99.222;2023-03-01T15:52:19;23.17;;;7.15;;
12412;SDS011;13877;18.896;-99.222;2023-03-01T15:54:59;34.03;;;6.72;;
12412;SDS011;13877;18.896;-99.222;2023-03-01T15:57:28;21.95;;;7.05;;
12412;SDS011;13877;18.896;-99.222;2023-03-01T15:59:55;24.10;;;7.05;;
12412;SDS011;13877;18.896;-99.222;2023-03-01T16:02:23;12.88;;;6.28;;
12412;SDS011;13877;18.896;-99.222;2023-03-01T16:04:50;24.48;;;6.55;;
12412;SDS011;13877;18.896;-99.222;2023-03-01T16:07:19;23.73;;;6.35;;
12412;SDS011;13877;18.896;-99.222;2023-03-01T16:09:46;14.60;;;5.13;;
12412;SDS011;13877;18.896;-99.222;2023-03-01T16:12:14;24.73;;;6.22;;
12412;SDS011;13877;18.896;-99.222;2023-03-01T16:14:42;18.27;;;6.70;;
12412;SDS011;13877;18.896;-99.222;2023-03-01T16:17:09;13.20;;;5.63;;
12412;SDS011;13877;18.896;-99.222;2023-03-01T16:19:39;18.83;;;6.45;;
12412;SDS011;13877;18.896;-99.222;2023-03-01T16:22:07;25.30;;;6.40;;
12412;SDS011;13877;18.896;-99.222;2023-03-01T16:24:36;19.25;;;5.80;;
12412;SDS011;13877;18.896;-99.222;2023-03-01T16:27:03;18.50;;;7.85;;
12412;SDS011;13877;18.896;-99.222;2023-03-01T16:29:30;20.60;;;8.20;;
12412;SDS011;13877;18.896;-99.222;2023-03-01T16:32:00;33.38;;;10.85;;
12412;SDS011;13877;18.896;-99.222;2023-03-01T16:34:28;25.02;;;9.75;;
12412;SDS011;13877;18.896;-99.222;2023-03-01T16:36:55;26.15;;;8.07;;
12412;SDS011;13877;18.896;-99.222;2023-03-01T16:39:22;29.75;;;8.65;;